createdAt,value
2022-09-20T00:01:42.064Z,5.03
2022-09-20T00:04:13.540Z,4.80
2022-09-20T00:06:42.638Z,5.30
2022-09-20T00:09:12.618Z,4.20
2022-09-20T00:11:41.761Z,4.93
2022-09-20T00:14:10.737Z,4.80
2022-09-20T00:16:42.318Z,4.90
2022-09-20T00:19:19.238Z,5.57
2022-09-20T00:21:48.572Z,6.20
2022-09-20T00:24:17.531Z,6.30
2022-09-20T00:26:46.533Z,6.70
2022-09-20T00:29:15.542Z,6.47
2022-09-20T00:31:45.248Z,5.93
2022-09-20T00:34:33.577Z,5.87
2022-09-20T00:37:02.676Z,6.90
2022-09-20T00:39:31.690Z,6.73
2022-09-20T00:42:01.056Z,6.40
2022-09-20T00:44:52.479Z,6.40
2022-09-20T00:47:27.866Z,6.27
2022-09-20T00:50:07.114Z,6.20
2022-09-20T00:52:37.820Z,7.00
2022-09-20T00:55:10.613Z,7.30
2022-09-20T00:57:40.228Z,7.47
2022-09-20T01:00:11.842Z,7.20
2022-09-20T01:02:44.357Z,7.17
2022-09-20T01:05:17.336Z,7.00
2022-09-20T01:07:48.995Z,7.20
2022-09-20T01:10:18.460Z,7.10
2022-09-20T01:12:48.818Z,6.87
2022-09-20T01:15:18.383Z,7.60
2022-09-20T01:17:50.152Z,7.73
2022-09-20T01:20:25.846Z,7.97
2022-09-20T01:23:14.344Z,6.97
2022-09-20T01:26:29.124Z,7.10
2022-09-20T01:29:07.894Z,6.07
2022-09-20T01:31:42.063Z,6.13
2022-09-20T01:34:15.041Z,6.50
2022-09-20T01:36:51.292Z,6.57
2022-09-20T01:39:32.011Z,7.37
2022-09-20T01:42:04.061Z,7.30
2022-09-20T01:44:40.534Z,6.90
2022-09-20T01:47:20.184Z,8.97
2022-09-20T01:49:58.413Z,8.40
2022-09-20T01:52:50.538Z,9.40
2022-09-20T01:55:51.397Z,8.40
2022-09-20T01:59:19.823Z,8.20
2022-09-20T02:02:10.504Z,8.50
2022-09-20T02:05:12.088Z,8.50
2022-09-20T02:08:05.360Z,9.00
2022-09-20T02:10:48.895Z,8.93
2022-09-20T02:13:30.218Z,9.60
2022-09-20T02:16:24.810Z,7.47
2022-09-20T02:19:18.650Z,8.57
2022-09-20T02:21:54.907Z,8.30
2022-09-20T02:24:31.511Z,8.60
2022-09-20T02:27:13.534Z,8.60
2022-09-20T02:29:48.413Z,7.43
2022-09-20T02:32:30.718Z,8.17
2022-09-20T02:35:17.794Z,8.00
2022-09-20T02:37:59.316Z,8.50
2022-09-20T02:40:57.153Z,8.90
2022-09-20T02:43:32.759Z,8.40
2022-09-20T02:46:08.155Z,9.20
2022-09-20T02:48:45.134Z,7.43
2022-09-20T02:51:23.357Z,7.53
2022-09-20T02:54:04.852Z,8.73
2022-09-20T02:56:44.414Z,8.07
2022-09-20T02:59:24.650Z,7.37
2022-09-20T03:02:12.411Z,7.73
2022-09-20T03:04:56.691Z,7.33
2022-09-20T03:07:35.986Z,6.70
2022-09-20T03:10:16.613Z,7.73
2022-09-20T03:12:59.477Z,7.50
2022-09-20T03:15:39.146Z,7.73
2022-09-20T03:18:12.811Z,7.73
2022-09-20T03:20:53.539Z,7.53
2022-09-20T03:23:38.731Z,7.63
2022-09-20T03:26:19.666Z,7.13
2022-09-20T03:28:58.661Z,6.07
2022-09-20T03:31:50.931Z,6.73
2022-09-20T03:34:36.433Z,6.07
2022-09-20T03:37:23.865Z,4.40
2022-09-20T03:40:27.686Z,5.00
2022-09-20T03:43:03.410Z,5.40
2022-09-20T03:45:47.970Z,5.00
2022-09-20T03:48:29.867Z,4.90
2022-09-20T03:51:18.165Z,4.23
2022-09-20T03:54:10.406Z,4.70
2022-09-20T03:57:17.909Z,4.73
2022-09-20T04:00:06.972Z,4.83
2022-09-20T04:03:01.650Z,4.60
2022-09-20T04:05:41.892Z,5.00
2022-09-20T04:08:25.845Z,4.37
2022-09-20T04:11:03.386Z,4.57
2022-09-20T04:13:38.362Z,4.90
2022-09-20T04:16:23.754Z,4.33
2022-09-20T04:18:58.744Z,4.80
2022-09-20T04:21:33.944Z,4.63
2022-09-20T04:24:07.320Z,4.33
2022-09-20T04:26:42.302Z,4.50
2022-09-20T04:29:34.591Z,4.73
2022-09-20T04:32:16.048Z,4.63
2022-09-20T04:35:07.699Z,4.00
2022-09-20T04:37:40.025Z,3.57
2022-09-20T04:40:21.454Z,4.13
2022-09-20T04:43:32.129Z,3.87
2022-09-20T04:46:40.445Z,3.53
2022-09-20T04:49:41.992Z,4.07
2022-09-20T04:52:48.305Z,3.60
2022-09-20T04:55:46.652Z,3.43
2022-09-20T04:58:45.162Z,3.70
2022-09-20T05:01:46.962Z,3.87
2022-09-20T05:04:53.849Z,3.67
2022-09-20T05:07:51.065Z,3.17
2022-09-20T05:10:55.797Z,3.47
2022-09-20T05:13:34.683Z,3.47
2022-09-20T05:16:07.578Z,3.67
2022-09-20T05:19:08.752Z,3.30
2022-09-20T05:21:58.504Z,3.03
2022-09-20T05:24:52.925Z,3.30
2022-09-20T05:27:38.042Z,3.40
2022-09-20T05:30:13.713Z,3.27
2022-09-20T05:32:47.705Z,3.30
2022-09-20T05:35:23.564Z,2.80
2022-09-20T05:38:01.974Z,3.53
2022-09-20T05:40:36.859Z,3.50
2022-09-20T05:43:13.213Z,3.50
2022-09-20T05:46:11.606Z,3.10
2022-09-20T05:48:53.690Z,3.47
2022-09-20T05:51:49.104Z,3.07
2022-09-20T05:54:58.935Z,3.00
2022-09-20T05:57:41.602Z,3.33
2022-09-20T06:00:16.929Z,3.10
2022-09-20T06:02:55.363Z,3.40
2022-09-20T06:05:36.433Z,4.80
2022-09-20T06:08:31.674Z,2.80
2022-09-20T06:11:37.962Z,2.70
2022-09-20T06:14:22.224Z,2.80
2022-09-20T06:16:59.366Z,3.20
2022-09-20T06:19:38.295Z,3.70
2022-09-20T06:22:15.554Z,3.10
2022-09-20T06:24:50.646Z,3.73
2022-09-20T06:27:25.237Z,3.43
2022-09-20T06:30:00.975Z,3.50
2022-09-20T06:32:32.158Z,3.70
2022-09-20T06:35:04.276Z,3.43
2022-09-20T06:38:03.575Z,3.90
2022-09-20T06:40:58.734Z,2.60
2022-09-20T06:43:31.702Z,3.57
2022-09-20T06:46:00.776Z,3.50
2022-09-20T06:48:32.195Z,3.33
2022-09-20T06:51:02.268Z,2.97
2022-09-20T06:53:33.975Z,3.20
2022-09-20T06:56:05.578Z,3.67
2022-09-20T06:58:34.534Z,3.40
2022-09-20T07:01:03.425Z,2.97
2022-09-20T07:03:34.176Z,2.87
2022-09-20T07:06:04.670Z,4.07
2022-09-20T07:08:34.096Z,3.13
2022-09-20T07:11:06.139Z,4.10
2022-09-20T07:13:35.303Z,2.97
2022-09-20T07:16:05.689Z,4.20
2022-09-20T07:18:36.768Z,3.03
2022-09-20T07:21:06.560Z,3.47
2022-09-20T07:23:35.700Z,2.97
2022-09-20T07:26:04.702Z,4.30
2022-09-20T07:28:35.192Z,3.30
2022-09-20T07:31:04.419Z,2.97
2022-09-20T07:33:33.416Z,2.90
2022-09-20T07:36:04.317Z,3.37
2022-09-20T07:38:33.482Z,4.00
2022-09-20T07:41:04.196Z,4.10
2022-09-20T07:43:33.742Z,3.47
2022-09-20T07:46:02.979Z,3.90
2022-09-20T07:48:34.205Z,3.17
2022-09-20T07:51:08.910Z,3.03
2022-09-20T07:53:38.459Z,3.40
2022-09-20T07:56:09.076Z,3.67
2022-09-20T07:58:38.287Z,5.03
2022-09-20T08:01:09.127Z,6.70
2022-09-20T08:03:38.764Z,3.50
2022-09-20T08:06:11.193Z,3.40
2022-09-20T08:08:41.482Z,3.07
2022-09-20T08:11:12.973Z,3.97
2022-09-20T08:16:33.907Z,5.00
2022-09-20T08:19:04.240Z,3.90
2022-09-20T08:21:38.595Z,3.87
2022-09-20T08:24:07.949Z,3.30
2022-09-20T08:26:37.298Z,4.43
2022-09-20T08:29:07.484Z,3.03
2022-09-20T08:31:40.404Z,3.97
2022-09-20T08:34:11.170Z,2.70
2022-09-20T08:36:45.653Z,2.47
2022-09-20T08:42:16.387Z,3.20
2022-09-20T08:45:00.500Z,2.73
2022-09-20T08:47:32.763Z,2.60
2022-09-20T08:50:16.824Z,3.00
2022-09-20T08:52:49.590Z,4.90
2022-09-20T08:55:21.083Z,2.53
2022-09-20T08:57:52.222Z,2.20
2022-09-20T09:00:23.640Z,5.30
2022-09-20T09:02:55.501Z,2.40
2022-09-20T09:05:35.818Z,2.80
2022-09-20T09:08:16.658Z,2.37
2022-09-20T09:10:54.371Z,2.43
2022-09-20T09:13:28.270Z,2.70
2022-09-20T09:16:01.960Z,2.30
2022-09-20T09:18:37.273Z,4.00
2022-09-20T09:21:10.689Z,2.63
2022-09-20T09:23:44.815Z,2.77
2022-09-20T09:26:21.686Z,2.47
2022-09-20T09:29:17.904Z,5.07
2022-09-20T09:31:48.645Z,2.50
2022-09-20T09:34:29.181Z,2.73
2022-09-20T09:36:59.672Z,3.47
2022-09-20T09:39:33.146Z,2.70
2022-09-20T09:42:20.435Z,2.37
2022-09-20T09:44:50.663Z,3.33
2022-09-20T09:47:28.986Z,2.67
2022-09-20T09:50:02.562Z,2.87
2022-09-20T09:52:35.707Z,2.70
2022-09-20T09:55:07.823Z,3.37
2022-09-20T09:57:54.254Z,2.40
2022-09-20T10:00:25.320Z,3.00
2022-09-20T10:03:23.853Z,3.50
2022-09-20T10:06:08.541Z,2.30
2022-09-20T10:08:47.520Z,2.00
2022-09-20T10:11:32.252Z,2.40
2022-09-20T10:14:14.611Z,2.70
2022-09-20T10:17:02.235Z,2.20
2022-09-20T10:19:50.380Z,2.37
2022-09-20T10:22:34.738Z,2.70
2022-09-20T10:25:17.052Z,2.80
2022-09-20T10:28:03.168Z,2.87
2022-09-20T10:30:38.773Z,2.70
2022-09-20T10:33:19.991Z,3.73
2022-09-20T10:36:03.221Z,3.40
2022-09-20T10:38:37.304Z,2.30
2022-09-20T10:41:45.387Z,3.00
2022-09-20T10:44:34.137Z,4.13
2022-09-20T10:47:10.456Z,2.37
2022-09-20T10:49:48.476Z,2.63
2022-09-20T10:52:42.492Z,2.67
2022-09-20T10:55:35.028Z,2.00
2022-09-20T10:58:37.106Z,3.50
2022-09-20T11:01:15.538Z,2.33
2022-09-20T11:03:58.699Z,3.30
2022-09-20T11:06:39.497Z,3.00
2022-09-20T11:09:14.182Z,3.33
2022-09-20T11:11:46.804Z,3.17
2022-09-20T11:14:21.462Z,2.60
2022-09-20T11:17:00.505Z,2.50
2022-09-20T11:19:34.979Z,2.50
2022-09-20T11:22:10.166Z,3.43
2022-09-20T11:24:43.611Z,2.23
2022-09-20T11:27:20.031Z,2.63
2022-09-20T11:29:54.487Z,2.50
2022-09-20T11:32:31.284Z,3.30
2022-09-20T11:35:08.373Z,2.53
2022-09-20T11:37:41.048Z,2.43
2022-09-20T11:40:19.361Z,2.70
2022-09-20T11:42:48.790Z,4.97
2022-09-20T11:45:17.954Z,2.97
2022-09-20T11:47:55.712Z,2.90
2022-09-20T11:51:00.997Z,2.83
2022-09-20T11:53:43.974Z,2.23
2022-09-20T11:56:20.242Z,3.17
2022-09-20T11:58:51.520Z,2.40
2022-09-20T12:01:30.694Z,2.37
2022-09-20T12:04:30.628Z,2.70
2022-09-20T12:07:07.495Z,2.70
2022-09-20T12:09:40.870Z,2.43
2022-09-20T12:12:21.565Z,2.50
2022-09-20T12:14:56.443Z,4.00
2022-09-20T12:18:08.214Z,3.53
2022-09-20T12:21:27.492Z,2.77
2022-09-20T12:24:20.980Z,2.93
2022-09-20T12:26:52.343Z,3.10
2022-09-20T12:29:57.511Z,3.00
2022-09-20T12:32:40.999Z,2.50
2022-09-20T12:35:58.450Z,2.57
2022-09-20T12:38:41.829Z,3.07
2022-09-20T12:41:28.149Z,3.40
2022-09-20T12:44:04.956Z,3.50
2022-09-20T12:46:43.975Z,3.97
2022-09-20T12:49:55.931Z,3.37
2022-09-20T12:52:49.818Z,3.00
2022-09-20T12:55:46.078Z,3.43
2022-09-20T12:58:38.209Z,3.03
2022-09-20T13:01:34.431Z,3.07
2022-09-20T13:04:41.295Z,4.40
2022-09-20T13:07:43.632Z,3.00
2022-09-20T13:10:39.281Z,2.60
2022-09-20T13:13:35.171Z,2.80
2022-09-20T13:16:06.693Z,2.33
2022-09-20T13:18:37.949Z,2.43
2022-09-20T13:21:09.403Z,2.90
2022-09-20T13:23:49.760Z,2.93
2022-09-20T13:26:26.132Z,2.77
2022-09-20T13:28:59.418Z,2.60
2022-09-20T13:31:31.185Z,2.67
2022-09-20T13:34:20.747Z,2.70
2022-09-20T13:36:56.044Z,3.00
2022-09-20T13:39:35.278Z,2.90
2022-09-20T13:42:11.828Z,3.10
2022-09-20T13:44:45.259Z,2.73
2022-09-20T13:47:25.598Z,2.80
2022-09-20T13:49:55.052Z,2.73
2022-09-20T13:52:29.924Z,2.43
2022-09-20T13:54:59.387Z,2.30
2022-09-20T13:57:30.694Z,3.27
2022-09-20T14:00:03.192Z,2.40
2022-09-20T14:02:41.380Z,4.27
2022-09-20T14:05:19.563Z,4.20
2022-09-20T14:07:50.229Z,2.60
2022-09-20T14:10:32.518Z,2.80
2022-09-20T14:13:03.656Z,2.80
2022-09-20T14:15:38.798Z,3.37
2022-09-20T14:18:10.911Z,3.10
2022-09-20T14:20:43.620Z,3.50
2022-09-20T14:23:22.920Z,3.00
2022-09-20T14:26:08.982Z,3.70
2022-09-20T14:28:38.343Z,4.27
2022-09-20T14:31:10.818Z,3.10
2022-09-20T14:33:42.370Z,3.10
2022-09-20T14:36:16.586Z,2.63
2022-09-20T14:38:48.608Z,3.13
2022-09-20T14:41:29.176Z,2.23
2022-09-20T14:44:00.417Z,2.90
2022-09-20T14:46:36.847Z,2.80
2022-09-20T14:49:32.542Z,2.60
2022-09-20T14:52:24.594Z,3.10
2022-09-20T14:55:02.482Z,2.30
2022-09-20T14:57:32.502Z,3.23
2022-09-20T15:00:08.337Z,2.70
2022-09-20T15:02:43.960Z,2.20
2022-09-20T15:05:20.964Z,2.93
2022-09-20T15:07:49.968Z,2.60
2022-09-20T15:10:19.601Z,2.10
2022-09-20T15:12:49.022Z,2.37
2022-09-20T15:15:20.248Z,2.50
2022-09-20T15:17:50.976Z,1.90
2022-09-20T15:20:24.251Z,4.03
2022-09-20T15:22:53.990Z,2.90
2022-09-20T15:25:23.713Z,2.63
2022-09-20T15:27:52.908Z,3.37
2022-09-20T15:30:22.567Z,3.30
2022-09-20T15:32:54.671Z,3.40
2022-09-20T15:35:24.040Z,3.30
2022-09-20T15:37:53.071Z,8.10
2022-09-20T15:40:22.225Z,6.20
2022-09-20T15:42:55.928Z,6.93
2022-09-20T15:45:26.811Z,2.73
2022-09-20T15:47:58.482Z,1.77
2022-09-20T15:50:28.571Z,3.13
2022-09-20T15:53:00.124Z,3.50
2022-09-20T15:55:29.811Z,3.77
2022-09-20T15:57:58.802Z,3.10
2022-09-20T16:00:27.882Z,3.73
2022-09-20T16:02:59.128Z,3.30
2022-09-20T16:05:28.327Z,2.27
2022-09-20T16:07:59.226Z,2.83
2022-09-20T16:10:28.461Z,3.70
2022-09-20T16:12:57.661Z,4.47
2022-09-20T16:15:26.920Z,2.90
2022-09-20T16:18:14.755Z,3.47
2022-09-20T16:20:43.876Z,2.63
2022-09-20T16:23:15.235Z,2.83
2022-09-20T16:25:46.230Z,3.00
2022-09-20T16:28:15.213Z,3.47
2022-09-20T16:30:44.568Z,2.87
2022-09-20T16:33:16.018Z,3.10
2022-09-20T16:35:45.244Z,3.37
2022-09-20T16:38:15.028Z,3.00
2022-09-20T16:40:44.329Z,3.00
2022-09-20T16:43:20.454Z,3.50
2022-09-20T16:45:49.619Z,2.97
2022-09-20T16:48:20.528Z,3.00
2022-09-20T16:50:56.061Z,2.90
2022-09-20T16:53:26.756Z,2.97
2022-09-20T16:55:56.982Z,6.93
2022-09-20T16:58:29.895Z,5.30
2022-09-20T17:01:05.493Z,2.60
2022-09-20T17:03:36.147Z,4.00
2022-09-20T17:06:06.191Z,3.93
2022-09-20T17:08:39.132Z,2.73
2022-09-20T17:11:10.431Z,3.30
2022-09-20T17:13:40.875Z,3.10
2022-09-20T17:16:12.303Z,3.07
2022-09-20T17:18:43.922Z,3.17
2022-09-20T17:21:15.210Z,2.90
2022-09-20T17:23:50.177Z,2.93
2022-09-20T17:26:23.388Z,6.33
2022-09-20T17:28:56.355Z,2.97
2022-09-20T17:31:34.194Z,3.37
2022-09-20T17:34:06.773Z,4.67
2022-09-20T17:36:39.376Z,4.70
2022-09-20T17:39:10.981Z,3.30
2022-09-20T17:41:40.621Z,3.50
2022-09-20T17:44:10.298Z,3.13
2022-09-20T17:46:41.065Z,6.50
2022-09-20T17:49:13.874Z,3.43
2022-09-20T17:51:44.448Z,3.70
2022-09-20T17:54:14.401Z,4.50
2022-09-20T17:56:44.677Z,3.73
2022-09-20T17:59:16.324Z,3.10
2022-09-20T18:01:47.128Z,3.60
2022-09-20T18:04:21.090Z,2.90
2022-09-20T18:06:51.880Z,3.10
2022-09-20T18:09:22.632Z,3.57
2022-09-20T18:11:53.790Z,4.23
2022-09-20T18:14:24.668Z,3.50
2022-09-20T18:16:55.251Z,3.70
2022-09-20T18:19:32.803Z,5.70
2022-09-20T18:22:02.794Z,4.83
2022-09-20T18:24:32.060Z,4.30
2022-09-20T18:27:01.825Z,5.50
2022-09-20T18:29:36.853Z,4.30
2022-09-20T18:32:08.910Z,6.70
2022-09-20T18:34:39.698Z,3.87
2022-09-20T18:37:13.787Z,4.00
2022-09-20T18:39:44.131Z,3.83
2022-09-20T18:42:13.183Z,3.03
2022-09-20T18:44:43.344Z,4.20
2022-09-20T18:47:12.295Z,2.40
2022-09-20T18:49:42.743Z,3.53
2022-09-20T18:52:13.303Z,3.97
2022-09-20T18:54:42.677Z,3.97
2022-09-20T18:57:12.365Z,4.87
2022-09-20T18:59:53.430Z,4.73
2022-09-20T19:02:50.612Z,7.10
2022-09-20T19:05:36.154Z,6.33
2022-09-20T19:08:18.501Z,8.80
2022-09-20T19:10:53.517Z,5.97
2022-09-20T19:13:32.779Z,4.83
2022-09-20T19:16:20.705Z,5.60
2022-09-20T19:19:20.496Z,6.40
2022-09-20T19:21:59.286Z,6.73
2022-09-20T19:24:47.758Z,4.80
2022-09-20T19:27:17.172Z,7.00
2022-09-20T19:29:46.891Z,5.83
2022-09-20T19:32:21.388Z,4.30
2022-09-20T19:34:53.560Z,5.00
2022-09-20T19:37:34.938Z,7.57
2022-09-20T19:40:22.927Z,7.70
2022-09-20T19:43:03.900Z,4.60
2022-09-20T19:45:41.031Z,7.33
2022-09-20T19:48:18.001Z,6.50
2022-09-20T19:50:49.246Z,6.07
2022-09-20T19:53:22.479Z,4.80
2022-09-20T19:55:54.892Z,4.70
2022-09-20T19:58:24.166Z,6.30
2022-09-20T20:00:53.653Z,6.10
2022-09-20T20:03:26.405Z,7.70
2022-09-20T20:06:04.550Z,4.87
2022-09-20T20:08:48.936Z,3.60
2022-09-20T20:11:26.257Z,5.10
2022-09-20T20:14:04.860Z,3.27
2022-09-20T20:16:39.745Z,4.73
2022-09-20T20:19:33.258Z,4.00
2022-09-20T20:22:09.882Z,4.20
2022-09-20T20:24:48.699Z,4.00
2022-09-20T20:27:17.911Z,5.40
2022-09-20T20:29:47.300Z,4.20
2022-09-20T20:32:16.766Z,4.10
2022-09-20T20:34:47.317Z,4.83
2022-09-20T20:37:18.463Z,5.03
2022-09-20T20:39:48.957Z,6.50
2022-09-20T20:42:18.141Z,5.10
2022-09-20T20:44:47.768Z,5.90
2022-09-20T20:47:17.067Z,4.00
2022-09-20T20:49:50.698Z,4.30
2022-09-20T20:52:21.779Z,4.40
2022-09-20T20:54:52.533Z,5.07
2022-09-20T20:57:21.777Z,4.13
2022-09-20T20:59:50.825Z,4.30
2022-09-20T21:02:19.985Z,4.40
2022-09-20T21:04:49.300Z,4.50
2022-09-20T21:07:18.416Z,6.37
2022-09-20T21:09:47.761Z,5.33
2022-09-20T21:12:19.125Z,3.40
2022-09-20T21:14:48.559Z,4.30
2022-09-20T21:17:17.551Z,3.60
2022-09-20T21:19:46.458Z,4.53
2022-09-20T21:22:15.237Z,4.77
2022-09-20T21:24:44.261Z,4.40
2022-09-20T21:27:13.334Z,4.53
2022-09-20T21:29:43.876Z,4.10
2022-09-20T21:32:14.535Z,7.00
2022-09-20T21:34:43.985Z,5.37
2022-09-20T21:37:13.329Z,4.50
2022-09-20T21:39:42.189Z,3.40
2022-09-20T21:42:11.206Z,3.90
2022-09-20T21:44:43.536Z,4.03
2022-09-20T21:47:20.880Z,3.57
2022-09-20T21:49:49.979Z,3.60
2022-09-20T21:52:18.972Z,3.67
2022-09-20T21:54:47.999Z,3.00
2022-09-20T21:57:17.049Z,3.77
2022-09-20T21:59:46.185Z,3.53
2022-09-20T22:02:17.250Z,3.60
2022-09-20T22:04:46.384Z,3.97
2022-09-20T22:07:16.254Z,3.67
2022-09-20T22:09:45.487Z,3.23
2022-09-20T22:12:14.370Z,3.23
2022-09-20T22:14:44.685Z,3.63
2022-09-20T22:17:13.648Z,3.63
2022-09-20T22:19:45.081Z,3.77
2022-09-20T22:22:14.064Z,3.43
2022-09-20T22:24:43.795Z,3.77
2022-09-20T22:27:13.042Z,3.10
2022-09-20T22:29:42.105Z,3.53
2022-09-20T22:32:11.847Z,3.30
2022-09-20T22:34:40.826Z,2.50
2022-09-20T22:37:11.114Z,3.53
2022-09-20T22:39:41.629Z,3.17
2022-09-20T22:42:10.651Z,2.70
2022-09-20T22:44:39.677Z,3.70
2022-09-20T22:47:08.914Z,2.43
2022-09-20T22:49:38.244Z,3.20
2022-09-20T22:52:08.077Z,3.53
2022-09-20T22:54:38.958Z,3.93
2022-09-20T22:57:08.258Z,3.37
2022-09-20T22:59:37.564Z,3.73
2022-09-20T23:02:06.589Z,3.00
2022-09-20T23:04:36.016Z,2.67
2022-09-20T23:07:05.299Z,3.20
2022-09-20T23:09:34.110Z,3.37
2022-09-20T23:12:05.285Z,3.30
2022-09-20T23:14:34.380Z,3.20
2022-09-20T23:17:03.296Z,3.07
2022-09-20T23:19:32.502Z,3.20
2022-09-20T23:22:01.383Z,3.57
2022-09-20T23:24:31.305Z,2.90
2022-09-20T23:27:00.421Z,2.90
2022-09-20T23:29:32.672Z,3.30
2022-09-20T23:32:01.945Z,3.03
2022-09-20T23:34:31.442Z,3.50
2022-09-20T23:37:00.740Z,3.57
2022-09-20T23:39:30.079Z,2.87
2022-09-20T23:41:59.633Z,3.30
2022-09-20T23:44:28.760Z,3.70
2022-09-20T23:46:59.122Z,3.10
2022-09-20T23:49:28.765Z,3.10
2022-09-20T23:51:58.118Z,3.43
2022-09-20T23:54:27.563Z,3.60
2022-09-20T23:56:56.626Z,2.90
2022-09-20T23:59:25.821Z,3.23
